createdAt,value
2023-02-13T00:01:59.993Z,103589.56
2023-02-13T00:05:01.729Z,103586.94
2023-02-13T00:08:03.616Z,103586.94
2023-02-13T00:11:05.472Z,103584.31
2023-02-13T00:14:07.060Z,103586.97
2023-02-13T00:17:08.625Z,103581.69
2023-02-13T00:20:11.502Z,103579.97
2023-02-13T00:23:13.082Z,103579.06
2023-02-13T00:26:16.813Z,103582.63
2023-02-13T00:29:18.455Z,103580.88
2023-02-13T00:32:20.064Z,103579.13
2023-02-13T00:35:21.614Z,103577.38
2023-02-13T00:38:23.134Z,103571.19
2023-02-13T00:41:24.749Z,103573.84
2023-02-13T00:44:26.327Z,103572.09
2023-02-13T00:47:27.911Z,103569.47
2023-02-13T00:50:29.447Z,103570.38
2023-02-13T00:53:31.640Z,103574.78
2023-02-13T00:56:33.681Z,103578.34
2023-02-13T00:59:35.217Z,103575.69
2023-02-13T01:02:36.839Z,103575.72
2023-02-13T01:05:38.477Z,103581.00
2023-02-13T01:08:40.801Z,103581.91
2023-02-13T01:11:42.373Z,103572.22
2023-02-13T01:14:43.868Z,103577.53
2023-02-13T01:17:45.488Z,103578.41
2023-02-13T01:20:57.755Z,103580.19
2023-02-13T01:24:03.787Z,103581.97
2023-02-13T01:27:05.365Z,103581.06
2023-02-13T01:30:11.775Z,103578.47
2023-02-13T01:33:13.523Z,103579.34
2023-02-13T01:36:15.540Z,103572.31
2023-02-13T01:39:17.079Z,103568.78
2023-02-13T01:42:26.092Z,103569.66
2023-02-13T01:45:30.166Z,103567.94
2023-02-13T01:48:32.524Z,103565.31
2023-02-13T01:51:36.574Z,103555.59
2023-02-13T01:54:38.606Z,103556.50
2023-02-13T01:57:43.227Z,103554.75
2023-02-13T02:00:49.951Z,103554.75
2023-02-13T02:04:04.785Z,103546.84
2023-02-13T02:07:14.572Z,103529.19
2023-02-13T02:10:18.770Z,103528.31
2023-02-13T02:13:21.910Z,103527.44
2023-02-13T02:16:25.305Z,103524.81
2023-02-13T02:19:42.356Z,103518.66
2023-02-13T02:23:39.602Z,103504.53
2023-02-13T02:27:08.979Z,103508.94
2023-02-13T02:30:22.275Z,103517.78
2023-02-13T02:33:32.896Z,103516.03
2023-02-13T02:36:43.584Z,103515.16
2023-02-13T02:40:18.906Z,103511.63
2023-02-13T02:43:38.657Z,103511.63
2023-02-13T02:47:10.194Z,103514.28
2023-02-13T02:50:20.331Z,103519.59
2023-02-13T02:53:59.039Z,103516.94
2023-02-13T02:57:06.225Z,103511.66
2023-02-13T03:00:37.701Z,103514.31
2023-02-13T03:03:58.696Z,103512.53
2023-02-13T03:07:05.006Z,103506.38
2023-02-13T03:10:31.855Z,103501.09
2023-02-13T03:13:41.027Z,103502.84
2023-02-13T03:17:01.177Z,103507.22
2023-02-13T03:20:27.187Z,103506.38
2023-02-13T03:23:40.803Z,103506.38
2023-02-13T03:26:56.753Z,103509.00
2023-02-13T03:30:11.703Z,103507.25
2023-02-13T03:33:50.688Z,103506.38
2023-02-13T03:37:24.396Z,103506.38
2023-02-13T03:41:09.045Z,103503.72
2023-02-13T03:44:26.717Z,103504.63
2023-02-13T03:47:28.441Z,103508.16
2023-02-13T03:50:30.034Z,103519.59
2023-02-13T03:53:36.070Z,103510.78
2023-02-13T03:56:59.902Z,103516.97
2023-02-13T04:00:04.079Z,103515.19
2023-02-13T04:03:22.598Z,103516.09
2023-02-13T04:06:35.796Z,103514.31
2023-02-13T04:09:42.955Z,103521.38
2023-02-13T04:13:03.288Z,103513.44
2023-02-13T04:16:18.365Z,103517.84
2023-02-13T04:19:21.151Z,103521.28
2023-02-13T04:22:22.709Z,103515.91
2023-02-13T04:25:24.283Z,103520.28
2023-02-13T04:28:26.005Z,103528.22
2023-02-13T04:31:27.716Z,103528.22
2023-02-13T04:34:29.285Z,103522.97
2023-02-13T04:37:30.887Z,103519.47
2023-02-13T04:40:32.564Z,103518.59
2023-02-13T04:43:34.298Z,103520.41
2023-02-13T04:46:35.889Z,103517.75
2023-02-13T04:49:37.436Z,103517.78
2023-02-13T04:52:38.972Z,103515.13
2023-02-13T04:55:40.583Z,103518.69
2023-02-13T04:58:42.110Z,103520.47
2023-02-13T05:01:43.895Z,103516.06
2023-02-13T05:04:45.610Z,103517.84
2023-02-13T05:07:47.321Z,103516.97
2023-02-13T05:10:48.858Z,103514.31
2023-02-13T05:13:50.420Z,103509.03
2023-02-13T05:16:51.996Z,103512.59
2023-02-13T05:19:53.502Z,103506.44
2023-02-13T05:23:13.992Z,103514.38
2023-02-13T05:26:15.557Z,103518.78
2023-02-13T05:29:19.931Z,103517.88
2023-02-13T05:32:21.507Z,103505.56
2023-02-13T05:35:24.883Z,103513.50
2023-02-13T05:38:26.531Z,103510.88
2023-02-13T05:41:28.081Z,103519.66
2023-02-13T05:44:29.607Z,103517.94
2023-02-13T05:47:31.162Z,103515.28
2023-02-13T05:50:32.763Z,103507.34
2023-02-13T05:53:37.233Z,103514.38
2023-02-13T05:56:38.816Z,103522.34
2023-02-13T05:59:40.412Z,103525.84
2023-02-13T06:02:41.964Z,103525.88
2023-02-13T06:05:43.563Z,103531.19
2023-02-13T06:08:45.154Z,103534.72
2023-02-13T06:11:46.682Z,103535.59
2023-02-13T06:14:48.270Z,103543.53
2023-02-13T06:17:49.827Z,103534.72
2023-02-13T06:20:51.389Z,103550.59
2023-02-13T06:23:52.945Z,103543.53
2023-02-13T06:26:54.493Z,103539.16
2023-02-13T06:29:56.028Z,103540.91
2023-02-13T06:32:57.674Z,103542.69
2023-02-13T06:35:59.341Z,103544.41
2023-02-13T06:39:00.890Z,103543.53
2023-02-13T06:42:02.467Z,103552.34
2023-02-13T06:45:04.324Z,103551.47
2023-02-13T06:48:06.423Z,103557.63
2023-02-13T06:51:07.975Z,103555.91
2023-02-13T06:54:09.514Z,103559.41
2023-02-13T06:57:11.074Z,103563.81
2023-02-13T07:00:15.212Z,103558.53
2023-02-13T07:03:16.924Z,103567.34
2023-02-13T07:06:19.968Z,103578.81
2023-02-13T07:09:21.524Z,103579.69
2023-02-13T07:12:23.083Z,103576.16
2023-02-13T07:15:24.684Z,103575.28
2023-02-13T07:18:26.879Z,103584.97
2023-02-13T07:21:28.460Z,103577.91
2023-02-13T07:24:30.030Z,103586.72
2023-02-13T07:27:31.626Z,103578.78
2023-02-13T07:30:34.517Z,103583.19
2023-02-13T07:33:36.320Z,103590.25
2023-02-13T07:36:37.893Z,103596.41
2023-02-13T07:39:39.546Z,103597.31
2023-02-13T07:42:41.358Z,103599.03
2023-02-13T07:45:43.001Z,103601.66
2023-02-13T07:48:44.708Z,103590.22
2023-02-13T07:51:46.265Z,103592.88
2023-02-13T07:54:48.158Z,103599.94
2023-02-13T07:57:50.634Z,103585.81
2023-02-13T08:00:54.540Z,103591.97
2023-02-13T08:03:56.149Z,103602.53
2023-02-13T08:06:57.723Z,103597.25
2023-02-13T08:10:17.830Z,103591.09
2023-02-13T08:13:19.402Z,103591.09
2023-02-13T08:16:20.925Z,103595.50
2023-02-13T08:19:22.538Z,103593.72
2023-02-13T08:22:24.660Z,103594.63
2023-02-13T08:25:26.224Z,103594.59
2023-02-13T08:28:29.448Z,103596.38
2023-02-13T08:31:31.186Z,103606.94
2023-02-13T08:34:32.868Z,103599.88
2023-02-13T08:37:34.419Z,103597.22
2023-02-13T08:40:35.946Z,103602.53
2023-02-13T08:43:37.489Z,103601.63
2023-02-13T08:46:39.114Z,103610.47
2023-02-13T08:49:40.714Z,103601.63
2023-02-13T08:52:42.262Z,103599.84
2023-02-13T08:55:43.820Z,103599.88
2023-02-13T08:58:48.817Z,103604.28
2023-02-13T09:01:50.612Z,103600.75
2023-02-13T09:04:52.269Z,103603.41
2023-02-13T09:07:53.887Z,103606.03
2023-02-13T09:11:01.347Z,103609.56
2023-02-13T09:14:02.996Z,103609.56
2023-02-13T09:17:04.570Z,103608.69
2023-02-13T09:20:06.972Z,103606.00
2023-02-13T09:23:08.548Z,103608.66
2023-02-13T09:26:13.188Z,103608.69
2023-02-13T09:29:14.733Z,103605.13
2023-02-13T09:32:17.186Z,103600.75
2023-02-13T09:35:19.771Z,103604.25
2023-02-13T09:38:21.339Z,103610.41
2023-02-13T09:41:25.690Z,103608.63
2023-02-13T09:44:43.587Z,103613.03
2023-02-13T09:47:45.600Z,103610.38
2023-02-13T09:50:47.166Z,103607.75
2023-02-13T09:53:57.698Z,103607.72
2023-02-13T09:57:20.675Z,103605.09
2023-02-13T10:00:32.741Z,103613.91
2023-02-13T10:03:36.835Z,103611.28
2023-02-13T10:06:50.462Z,103612.16
2023-02-13T10:10:04.663Z,103630.69
2023-02-13T10:13:48.106Z,103628.91
2023-02-13T10:16:58.833Z,103620.06
2023-02-13T10:20:05.640Z,103617.44
2023-02-13T10:23:19.420Z,103620.94
2023-02-13T10:26:42.479Z,103622.72
2023-02-13T10:30:05.729Z,103624.47
2023-02-13T10:33:23.215Z,103631.53
2023-02-13T10:36:31.392Z,103626.22
2023-02-13T10:39:32.968Z,103620.94
2023-02-13T10:42:43.450Z,103615.59
2023-02-13T10:46:01.224Z,103615.59
2023-02-13T10:49:29.008Z,103610.31
2023-02-13T10:52:33.334Z,103617.38
2023-02-13T10:55:58.092Z,103609.41
2023-02-13T10:59:07.274Z,103610.28
2023-02-13T11:02:24.004Z,103601.44
2023-02-13T11:05:31.575Z,103600.56
2023-02-13T11:08:38.858Z,103594.38
2023-02-13T11:11:43.491Z,103590.84
2023-02-13T11:14:58.498Z,103589.94
2023-02-13T11:18:13.235Z,103579.38
2023-02-13T11:21:23.589Z,103584.69
2023-02-13T11:24:27.360Z,103579.38
2023-02-13T11:27:36.905Z,103577.63
2023-02-13T11:30:39.502Z,103573.16
2023-02-13T11:33:41.717Z,103572.31
2023-02-13T11:36:43.559Z,103570.56
2023-02-13T11:39:49.554Z,103569.69
2023-02-13T11:42:52.467Z,103559.97
2023-02-13T11:46:27.937Z,103568.78
2023-02-13T11:49:33.412Z,103559.06
2023-02-13T11:52:36.543Z,103565.22
2023-02-13T11:55:40.671Z,103563.44
2023-02-13T11:58:43.491Z,103569.63
2023-02-13T12:01:49.304Z,103568.75
2023-02-13T12:04:54.010Z,103565.19
2023-02-13T12:07:59.868Z,103573.13
2023-02-13T12:11:04.027Z,103569.59
2023-02-13T12:14:05.977Z,103571.34
2023-02-13T12:17:25.550Z,103567.81
2023-02-13T12:21:01.279Z,103557.19
2023-02-13T12:24:42.117Z,103556.34
2023-02-13T12:28:08.671Z,103563.38
2023-02-13T12:31:16.141Z,103556.28
2023-02-13T12:34:35.993Z,103564.22
2023-02-13T12:37:50.303Z,103551.88
2023-02-13T12:41:21.972Z,103543.03
2023-02-13T12:44:48.908Z,103540.41
2023-02-13T12:48:24.542Z,103541.31
2023-02-13T12:51:34.842Z,103547.44
2023-02-13T12:54:48.597Z,103543.03
2023-02-13T12:57:56.063Z,103542.16
2023-02-13T13:01:03.950Z,103532.47
2023-02-13T13:04:11.602Z,103531.53
2023-02-13T13:07:38.342Z,103528.88
2023-02-13T13:11:21.523Z,103523.56
2023-02-13T13:14:35.247Z,103520.06
2023-02-13T13:18:32.386Z,103525.38
2023-02-13T13:21:53.250Z,103525.38
2023-02-13T13:25:03.949Z,103526.28
2023-02-13T13:28:15.690Z,103528.91
2023-02-13T13:31:17.613Z,103516.56
2023-02-13T13:34:23.870Z,103512.13
2023-02-13T13:37:46.858Z,103513.91
2023-02-13T13:40:56.950Z,103511.25
2023-02-13T13:44:29.896Z,103505.94
2023-02-13T13:47:37.418Z,103507.66
2023-02-13T13:50:41.910Z,103502.38
2023-02-13T13:54:06.552Z,103509.44
2023-02-13T13:57:09.424Z,103503.25
2023-02-13T14:00:14.165Z,103492.69
2023-02-13T14:03:36.465Z,103490.94
2023-02-13T14:06:47.408Z,103494.47
2023-02-13T14:09:49.225Z,103490.03
2023-02-13T14:13:02.637Z,103493.56
2023-02-13T14:16:07.145Z,103491.78
2023-02-13T14:19:38.477Z,103485.59
2023-02-13T14:22:41.323Z,103477.66
2023-02-13T14:25:43.170Z,103482.06
2023-02-13T14:28:47.433Z,103482.97
2023-02-13T14:32:33.644Z,103480.28
2023-02-13T14:35:38.061Z,103476.78
2023-02-13T14:38:39.695Z,103465.31
2023-02-13T14:41:54.038Z,103469.72
2023-02-13T14:45:03.089Z,103469.72
2023-02-13T14:48:13.743Z,103481.19
2023-02-13T14:51:28.841Z,103470.59
2023-02-13T14:54:38.454Z,103472.38
2023-02-13T14:57:45.119Z,103471.47
2023-02-13T15:00:55.228Z,103463.56
2023-02-13T15:04:12.698Z,103459.16
2023-02-13T15:07:24.680Z,103467.97
2023-02-13T15:10:47.088Z,103460.03
2023-02-13T15:13:49.052Z,103458.13
2023-02-13T15:16:59.151Z,103463.38
2023-02-13T15:20:12.747Z,103461.63
2023-02-13T15:23:27.013Z,103462.53
2023-02-13T15:26:29.573Z,103458.97
2023-02-13T15:29:44.349Z,103460.72
2023-02-13T15:33:00.387Z,103466.03
2023-02-13T15:36:06.205Z,103466.94
2023-02-13T15:39:09.842Z,103465.19
2023-02-13T15:42:13.012Z,103462.53
2023-02-13T15:45:17.568Z,103451.94
2023-02-13T15:48:19.289Z,103462.53
2023-02-13T15:51:29.799Z,103460.72
2023-02-13T15:54:33.432Z,103458.97
2023-02-13T15:57:35.160Z,103461.69
2023-02-13T16:00:41.350Z,103466.97
2023-02-13T16:03:46.235Z,103469.66
2023-02-13T16:06:50.955Z,103466.16
2023-02-13T16:09:52.649Z,103462.63
2023-02-13T16:12:56.336Z,103457.31
2023-02-13T16:16:09.549Z,103465.25
2023-02-13T16:19:30.063Z,103466.09
2023-02-13T16:22:31.588Z,103466.09
2023-02-13T16:25:34.667Z,103460.78
2023-02-13T16:28:37.953Z,103462.38
2023-02-13T16:31:40.784Z,103462.38
2023-02-13T16:34:42.405Z,103466.81
2023-02-13T16:37:53.245Z,103463.31
2023-02-13T16:40:57.294Z,103455.44
2023-02-13T16:44:03.993Z,103462.53
2023-02-13T16:47:06.325Z,103459.94
2023-02-13T16:50:16.009Z,103451.13
2023-02-13T16:53:17.657Z,103448.53
2023-02-13T16:56:19.314Z,103447.69
2023-02-13T16:59:22.838Z,103447.69
2023-02-13T17:02:32.090Z,103453.00
2023-02-13T17:05:33.621Z,103452.13
2023-02-13T17:08:35.165Z,103449.47
2023-02-13T17:11:36.717Z,103450.31
2023-02-13T17:14:38.275Z,103448.59
2023-02-13T17:17:40.030Z,103450.38
2023-02-13T17:20:45.198Z,103452.16
2023-02-13T17:23:48.022Z,103453.94
2023-02-13T17:26:49.549Z,103443.34
2023-02-13T17:29:51.315Z,103443.34
2023-02-13T17:33:00.386Z,103460.97
2023-02-13T17:36:01.952Z,103458.31
2023-02-13T17:39:03.518Z,103466.22
2023-02-13T17:42:05.061Z,103452.09
2023-02-13T17:45:06.950Z,103460.00
2023-02-13T17:48:08.782Z,103460.88
2023-02-13T17:51:14.637Z,103449.41
2023-02-13T17:54:16.255Z,103452.94
2023-02-13T17:57:19.180Z,103459.13
2023-02-13T18:00:21.549Z,103448.56
2023-02-13T18:03:23.110Z,103453.84
2023-02-13T18:06:24.631Z,103454.72
2023-02-13T18:09:26.180Z,103447.69
2023-02-13T18:12:28.325Z,103450.44
2023-02-13T18:15:40.748Z,103454.88
2023-02-13T18:18:42.328Z,103455.81
2023-02-13T18:21:43.863Z,103461.09
2023-02-13T18:24:45.402Z,103461.94
2023-02-13T18:27:47.226Z,103465.47
2023-02-13T18:30:48.934Z,103457.53
2023-02-13T18:33:50.548Z,103460.25
2023-02-13T18:36:52.137Z,103460.28
2023-02-13T18:39:53.757Z,103457.63
2023-02-13T18:42:55.337Z,103454.06
2023-02-13T18:45:56.992Z,103464.63
2023-02-13T18:48:58.718Z,103460.25
2023-02-13T18:52:01.643Z,103452.28
2023-02-13T18:55:06.343Z,103454.94
2023-02-13T18:58:08.048Z,103457.56
2023-02-13T19:01:16.437Z,103456.66
2023-02-13T19:04:18.074Z,103456.69
2023-02-13T19:07:19.613Z,103460.25
2023-02-13T19:10:21.163Z,103461.09
2023-02-13T19:13:22.728Z,103452.25
2023-02-13T19:16:25.155Z,103458.41
2023-02-13T19:19:26.703Z,103447.81
2023-02-13T19:22:28.573Z,103445.19
2023-02-13T19:25:30.144Z,103448.78
2023-02-13T19:28:31.740Z,103445.28
2023-02-13T19:31:33.690Z,103447.94
2023-02-13T19:34:35.280Z,103447.03
2023-02-13T19:37:43.868Z,103432.91
2023-02-13T19:40:46.100Z,103441.75
2023-02-13T19:43:51.042Z,103440.84
2023-02-13T19:46:52.672Z,103435.53
2023-02-13T19:49:54.206Z,103433.75
2023-02-13T19:52:55.777Z,103434.63
2023-02-13T19:56:01.057Z,103427.53
2023-02-13T19:59:04.018Z,103422.25
2023-02-13T20:02:06.164Z,103431.09
2023-02-13T20:05:08.867Z,103423.16
2023-02-13T20:08:11.198Z,103429.34
2023-02-13T20:11:15.193Z,103428.53
2023-02-13T20:14:17.147Z,103427.69
2023-02-13T20:17:18.744Z,103429.50
2023-02-13T20:20:20.421Z,103429.50
2023-02-13T20:23:22.268Z,103433.00
2023-02-13T20:26:24.281Z,103426.84
2023-02-13T20:29:25.992Z,103431.22
2023-02-13T20:32:27.571Z,103435.63
2023-02-13T20:35:29.244Z,103434.75
2023-02-13T20:38:32.126Z,103433.84
2023-02-13T20:41:35.838Z,103435.63
2023-02-13T20:44:37.447Z,103428.56
2023-02-13T20:47:40.406Z,103432.13
2023-02-13T20:50:42.037Z,103435.66
2023-02-13T20:53:44.771Z,103433.06
2023-02-13T20:56:47.734Z,103429.59
2023-02-13T20:59:49.320Z,103426.13
2023-02-13T21:02:50.992Z,103430.59
2023-02-13T21:05:52.981Z,103432.34
2023-02-13T21:08:55.124Z,103428.84
2023-02-13T21:11:56.740Z,103430.63
2023-02-13T21:14:58.347Z,103430.66
2023-02-13T21:18:01.799Z,103423.72
2023-02-13T21:21:03.976Z,103430.75
2023-02-13T21:24:08.500Z,103432.56
2023-02-13T21:27:10.958Z,103433.50
2023-02-13T21:30:13.036Z,103437.94
2023-02-13T21:33:14.638Z,103438.88
2023-02-13T21:36:16.229Z,103438.88
2023-02-13T21:39:17.805Z,103432.75
2023-02-13T21:42:19.815Z,103429.25
2023-02-13T21:45:21.449Z,103430.16
2023-02-13T21:48:23.005Z,103427.50
2023-02-13T21:51:26.243Z,103427.50
2023-02-13T21:54:27.837Z,103431.03
2023-02-13T21:57:29.426Z,103438.06
2023-02-13T22:00:31.105Z,103432.78
2023-02-13T22:03:32.627Z,103430.16
2023-02-13T22:06:36.539Z,103428.41
2023-02-13T22:09:38.223Z,103426.66
2023-02-13T22:12:39.766Z,103425.78
2023-02-13T22:15:41.267Z,103417.00
2023-02-13T22:18:44.353Z,103416.13
2023-02-13T22:21:46.297Z,103417.00
2023-02-13T22:24:47.825Z,103424.91
2023-02-13T22:27:49.414Z,103425.78
2023-02-13T22:30:51.366Z,103420.53
2023-02-13T22:34:09.628Z,103428.44
2023-02-13T22:37:12.688Z,103430.19
2023-02-13T22:40:14.401Z,103433.72
2023-02-13T22:43:15.978Z,103439.88
2023-02-13T22:46:18.958Z,103444.28
2023-02-13T22:49:20.530Z,103445.13
2023-02-13T22:52:22.126Z,103439.88
2023-02-13T22:55:23.786Z,103443.38
2023-02-13T22:58:25.795Z,103452.19
2023-02-13T23:01:28.338Z,103448.66
2023-02-13T23:04:30.011Z,103447.78
2023-02-13T23:07:31.945Z,103447.75
2023-02-13T23:10:33.742Z,103453.88
2023-02-13T23:13:35.352Z,103453.91
2023-02-13T23:16:58.054Z,103452.16
2023-02-13T23:19:59.625Z,103457.44
2023-02-13T23:23:02.688Z,103447.75
2023-02-13T23:26:07.581Z,103445.13
2023-02-13T23:29:09.538Z,103438.06
2023-02-13T23:32:11.181Z,103445.97
2023-02-13T23:35:12.777Z,103444.19
2023-02-13T23:38:14.349Z,103452.09
2023-02-13T23:41:15.862Z,103456.50
2023-02-13T23:44:17.449Z,103452.06
2023-02-13T23:47:19.123Z,103451.19
2023-02-13T23:50:20.863Z,103456.44
2023-02-13T23:53:22.476Z,103455.56
2023-02-13T23:56:25.071Z,103454.69
2023-02-13T23:59:26.750Z,103456.44
